ASN logo
ASN Wikibase Occurrence # 231384
Last updated: 9 September 2021
This information is added by users of ASN. Neither ASN nor the Flight Safety Foundation are responsible for the completeness or correctness of this information. If you feel this information is incomplete or incorrect, you can submit corrected information.

Date:14-DEC-2019
Time:02:30 LT
Type:Silhouette image of generic A320 model; specific model in this crash may look slightly different
Airbus A320-232
Owner/operator:Jetstar Japan
Registration: JA13JJ
MSN: 5649
Fatalities:Fatalities: 0 / Occupants: 146
Other fatalities:0
Aircraft damage: Unknown
Location:Manila/Ninoy Aquino International Airport -   Philippines
Phase: Taxi
Nature:Passenger - Scheduled
Departure airport:Manila/Ninoy Aquino International Airport (MNL/RPLL), Philippines
Destination airport:Tokyo/Narita International Airport (NRT/RJAA), Japan
Narrative:
An Airbus A320-232 of Jetstar Japan, operating flight JJP/GK40 from Manila/Ninoy Aquino, Philippines to Tokyo/Narita, Japan, experienced runway excursion when the airplane entered the runway for departure. The right main landing gear exited the paved surface of the runway. No personal injuries among six crew and 140 passengers were reported. The flight was cancelled. The runway surface was wet and slippy due to recent rain showers at the time of the incident.

METAR/SPECI data of RPLL around the time of the incident (18:30 UTC of 13th December):
RPLL 131441Z 10010KT 070V140 3000 SHRA BKN022 OVC090 25/23 Q1010 TEMPO 2000 -RA RMK A3000=
RPLL 131500Z 11005KT 070V160 8000 -SHRA SCT023 BKN090 25/24 Q1015 RESHRA NOSIG RMK A2997=
RPLL 131600Z 10005KT 9999 SCT023 OVC100 25/24 Q1015 RESHRA NOSIG RMK A2997=
RPLL 131700Z 10004KT 070V140 9999 FEW023 BKN100 26/23 Q1015 NOSIG RMK A2997=
RPLL 131800Z VRB02KT 9999 FEW025 BKN250 25/23 Q1014 NOSIG RMK A2994=
RPLL 131900Z VRB01KT 9999 FEW025 BKN300 25/23 Q1014 NOSIG RMK A2994=

Sources:

https://headlines.yahoo.co.jp/hl?a=20191214-00000019-asahi-soci
https://headlines.yahoo.co.jp/hl?a=20191214-00000062-jij-soci
https://www.flightradar24.com/data/flights/gk40#232d10f5


Images:

Photo of JA13JJ courtesy AirHistory.net


Tokyo - Narita International (RJAA / NRT)
21 September 2019; (c) Phil

Revision history:

Date/timeContributorUpdates
14-Dec-2019 11:22 isamuel Added

Corrections or additions? ... Edit this accident description